Time;durP1;ratioP1;P1;durP2;ratioP2;P2;SDS_P1;SDS_P2;PMS_P1;PMS_P2;Temp;Humidity;BMP_temperature;BMP_pressure;BME280_temperature;BME280_humidity;BME280_pressure;Samples;Min_cycle;Max_cycle;Signal;HPM_P1;HPM_P2
2022/01/23 00:00:43;;;;;;;56.95;32.98;;;;;;;7.17;37.09;100298.38;1764754;81;21092;-59
2022/01/23 00:03:16;;;;;;;55.45;33.55;;;;;;;7.19;36.96;100294.64;1761621;79;21532;-71
2022/01/23 00:05:43;;;;;;;55.75;32.60;;;;;;;7.06;37.10;100293.81;1752590;79;21809;-62
2022/01/23 00:08:12;;;;;;;59.45;32.55;;;;;;;6.95;37.33;100293.31;1753912;81;21006;-61
2022/01/23 00:10:39;;;;;;;57.58;33.85;;;;;;;6.57;37.70;100296.27;1754011;81;21488;-62
2022/01/23 00:13:12;;;;;;;60.17;32.10;;;;;;;6.91;37.48;100290.71;1753312;79;21011;-72
2022/01/23 00:18:24;;;;;;;49.55;27.55;;;;;;;7.25;36.97;100299.69;1753918;81;21178;-60
2022/01/23 00:20:50;;;;;;;51.10;30.80;;;;;;;7.14;37.18;100303.39;1754176;79;21101;-72
2022/01/23 00:31:42;;;;;;;66.82;32.95;;;;;;;7.38;36.75;100287.05;1754468;79;21225;-59
2022/01/23 00:34:11;;;;;;;;;;;;;;;7.45;36.68;100281.53;1748043;81;21493;-72
2022/01/23 00:36:38;;;;;;;74.03;37.98;;;;;;;7.15;36.88;100276.98;1750646;81;20235;-60
2022/01/23 00:39:05;;;;;;;74.50;38.30;;;;;;;7.24;36.91;100274.25;1754507;80;21070;-61
2022/01/23 00:41:33;;;;;;;68.72;33.98;;;;;;;6.93;37.32;100265.44;1754432;79;21125;-61
2022/01/23 00:44:01;;;;;;;70.30;33.48;;;;;;;7.31;36.99;100266.16;1742545;79;21122;-71
2022/01/23 00:46:34;;;;;;;68.62;37.10;;;;;;;6.93;37.48;100267.56;1753069;79;21014;-59
2022/01/23 00:51:32;;;;;;;50.23;29.50;;;;;;;7.30;37.27;100265.81;1753964;79;20900;-62
2022/01/23 00:54:01;;;;;;;55.70;28.80;;;;;;;7.38;37.24;100274.56;1753678;79;21568;-71
2022/01/23 00:56:29;;;;;;;56.20;28.42;;;;;;;7.55;37.03;100279.59;1753648;79;21217;-59
2022/01/23 00:58:59;;;;;;;52.85;29.10;;;;;;;7.62;37.08;100269.88;1709660;81;21540;-60
2022/01/23 01:01:29;;;;;;;48.75;27.00;;;;;;;7.80;36.95;100264.84;1753959;81;20888;-61
2022/01/23 01:03:55;;;;;;;45.08;26.07;;;;;;;7.93;36.67;100272.59;1749245;80;21530;-60
2022/01/23 01:06:23;;;;;;;38.80;22.52;;;;;;;7.81;36.57;100273.42;1741377;82;21063;-70
2022/01/23 01:08:51;;;;;;;37.00;21.25;;;;;;;7.93;36.36;100278.59;1742600;82;22431;-59
2022/01/23 01:11:52;;;;;;;37.15;20.72;;;;;;;8.07;36.14;100262.00;1742687;82;21550;-59
2022/01/23 01:16:51;;;;;;;40.92;22.32;;;;;;;8.04;36.14;100255.38;1724402;82;21091;-62
2022/01/23 01:33:00;;;;;;;31.02;18.48;;;;;;;8.15;35.84;100247.72;1742161;81;21023;-72
2022/01/23 01:35:31;;;;;;;29.87;19.02;;;;;;;7.88;36.04;100245.84;1739817;81;21197;-59
2022/01/23 01:37:45;;;;;;;30.25;17.05;;;;;;;7.97;35.89;100250.03;1738745;82;20972;-59
2022/01/23 01:40:14;;;;;;;32.40;18.25;;;;;;;7.91;36.00;100255.88;1742705;82;21020;-59
2022/01/23 01:42:41;;;;;;;36.23;18.50;;;;;;;7.94;35.89;100249.55;1742007;82;21068;-60
2022/01/23 01:45:12;;;;;;;31.95;18.30;;;;;;;7.85;36.10;100248.77;1705518;82;21886;-60
2022/01/23 01:47:55;;;;;;;24.67;16.02;;;;;;;7.88;36.10;100241.95;1741628;82;21256;-58
2022/01/23 01:50:23;;;;;;;29.87;17.73;;;;;;;7.79;36.20;100229.45;1741250;82;21067;-60
2022/01/23 01:52:51;;;;;;;30.57;17.82;;;;;;;8.02;36.16;100229.56;1742491;82;21738;-65
2022/01/23 01:55:25;;;;;;;33.90;18.27;;;;;;;8.07;36.18;100234.73;1742362;82;20996;-59
2022/01/23 01:57:54;;;;;;;31.95;18.48;;;;;;;8.03;36.08;100238.98;1742284;82;21011;-61
2022/01/23 02:00:44;;;;;;;34.15;18.20;;;;;;;7.71;36.52;100239.05;1742616;82;21526;-61
2022/01/23 02:03:23;;;;;;;;;;;;;;;7.63;36.68;100244.25;1744027;82;21130;-61
2022/01/23 02:08:30;;;;;;;37.55;23.35;;;;;;;7.66;36.37;100256.91;1759342;81;20952;-67
2022/01/23 02:11:05;;;;;;;41.05;22.67;;;;;;;7.84;35.98;100257.53;1759830;81;21368;-62
2022/01/23 02:13:40;;;;;;;41.80;22.60;;;;;;;7.60;36.03;100266.13;1758625;81;20970;-60
2022/01/23 02:17:07;;;;;;;46.35;24.60;;;;;;;7.59;35.93;100275.39;1737978;81;21536;-59
2022/01/23 02:24:59;;;;;;;47.80;25.72;;;;;;;7.22;36.42;100276.66;1742202;81;21038;-60
2022/01/23 02:54:53;;;;;;;55.98;31.70;;;;;;;7.45;36.18;100296.29;1749015;81;21153;-60
2022/01/23 02:57:12;;;;;;;57.13;32.08;;;;;;;7.44;36.11;100299.38;1717512;83;20971;-60
2022/01/23 02:59:40;;;;;;;58.83;33.75;;;;;;;7.39;36.17;100309.92;1747766;81;21030;-69
2022/01/23 03:02:28;;;;;;;55.60;33.40;;;;;;;7.18;36.10;100316.36;1744704;81;21564;-59
2022/01/23 03:04:52;;;;;;;536.10;164.65;;;;;;;6.83;36.68;100320.00;1743477;79;21070;-63
2022/01/23 03:07:37;;;;;;;454.55;146.10;;;;;;;6.87;36.81;100323.09;1752545;79;21033;-70
2022/01/23 03:10:00;;;;;;;307.05;97.95;;;;;;;7.05;36.66;100325.09;1752690;79;21456;-58
2022/01/23 03:15:07;;;;;;;193.80;74.90;;;;;;;7.11;36.65;100330.11;1756453;80;20951;-69
2022/01/23 03:28:39;;;;;;;94.87;51.13;;;;;;;7.20;36.09;100356.40;1624480;86;21019;-71
2022/01/23 03:33:33;;;;;;;94.37;47.95;;;;;;;7.03;36.29;100350.34;1753975;80;22038;-61
2022/01/23 03:36:03;;;;;;;94.75;48.38;;;;;;;7.02;36.13;100349.53;1741519;80;20900;-69
2022/01/23 03:38:32;;;;;;;95.30;49.27;;;;;;;7.04;36.21;100359.73;1754293;81;21114;-61
2022/01/23 03:40:59;;;;;;;79.55;42.20;;;;;;;6.91;36.22;100364.07;1754112;80;20940;-63
2022/01/23 03:43:32;;;;;;;87.60;48.52;;;;;;;6.57;36.59;100374.45;1754049;80;21094;-59
2022/01/23 03:50:52;;;;;;;83.82;42.90;;;;;;;6.64;36.82;100379.34;1756598;79;21014;-61
2022/01/23 03:53:23;;;;;;;75.70;41.68;;;;;;;6.85;36.83;100378.94;1755281;81;21473;-59
2022/01/23 03:55:51;;;;;;;84.45;44.05;;;;;;;6.93;36.75;100372.52;1756621;81;21551;-69
2022/01/23 03:58:20;;;;;;;70.72;38.02;;;;;;;6.67;37.14;100382.12;1756128;79;21130;-60
2022/01/23 04:00:48;;;;;;;52.27;28.95;;;;;;;6.53;37.38;100386.89;1727014;80;21097;-60
2022/01/23 04:03:18;;;;;;;47.48;25.82;;;;;;;6.70;37.25;100393.44;1642331;87;21043;-59
2022/01/23 04:05:46;;;;;;;47.83;24.50;;;;;;;6.70;37.31;100385.18;1641019;87;21028;-69
2022/01/23 04:08:17;;;;;;;38.58;22.65;;;;;;;6.82;37.29;100381.38;1617855;87;21133;-69
2022/01/23 04:10:44;;;;;;;43.17;23.70;;;;;;;7.18;36.91;100381.66;1641874;87;21360;-60
2022/01/23 04:13:26;;;;;;;38.85;22.87;;;;;;;7.07;37.06;100380.16;1641947;87;21071;-60
2022/01/23 04:16:10;;;;;;;41.33;22.73;;;;;;;7.06;37.14;100384.53;1641259;86;21376;-60
2022/01/23 05:04:20;;;;;;;42.78;24.63;;;;;;;6.91;36.55;100415.91;1604738;87;22280;-64
2022/01/23 05:07:07;;;;;;;47.45;25.95;;;;;;;7.04;36.44;100412.38;1651891;84;21018;-60
2022/01/23 05:09:37;;;;;;;35.35;22.40;;;;;;;7.09;36.32;100415.02;1645460;85;21043;-61
2022/01/23 05:12:31;;;;;;;38.92;21.75;;;;;;;7.14;36.38;100417.94;1676609;85;21029;-63
2022/01/23 05:14:55;;;;;;;43.90;22.82;;;;;;;7.18;36.27;100414.88;1677023;85;21105;-59
2022/01/23 05:17:22;;;;;;;44.45;23.60;;;;;;;7.31;36.27;100422.19;1656145;85;21932;-59
2022/01/23 05:19:52;;;;;;;39.00;22.93;;;;;;;7.21;36.25;100424.94;1654912;85;21058;-63
2022/01/23 05:24:54;;;;;;;33.20;20.30;;;;;;;7.22;36.26;100422.66;1677068;85;21045;-59
2022/01/23 05:27:22;;;;;;;40.25;21.42;;;;;;;7.30;36.07;100427.06;1677453;85;20947;-61
2022/01/23 05:29:48;;;;;;;34.92;20.70;;;;;;;7.45;35.92;100425.48;1676855;84;21595;-63
2022/01/23 05:32:15;;;;;;;33.90;20.05;;;;;;;7.14;36.21;100430.41;1677514;85;21030;-68
2022/01/23 05:34:43;;;;;;;35.03;20.08;;;;;;;7.11;36.39;100426.02;1676833;83;21058;-59
2022/01/23 05:37:12;;;;;;;35.17;20.40;;;;;;;7.15;36.29;100429.44;1677408;85;21003;-58
2022/01/23 05:39:40;;;;;;;37.55;21.50;;;;;;;6.99;36.48;100434.07;1676689;84;21036;-59
2022/01/23 05:42:09;;;;;;;34.50;19.27;;;;;;;7.08;36.41;100416.77;1676843;85;21153;-59
2022/01/23 05:44:39;;;;;;;33.65;17.77;;;;;;;7.20;36.28;100418.62;1673895;85;21002;-59
2022/01/23 05:47:07;;;;;;;35.23;19.62;;;;;;;7.33;36.25;100415.08;1677705;85;21110;-59
2022/01/23 05:49:39;;;;;;;34.00;19.87;;;;;;;7.42;36.07;100416.71;1675420;85;21016;-61
2022/01/23 05:52:09;;;;;;;29.75;16.65;;;;;;;7.31;36.39;100422.19;1675268;85;21063;-59
2022/01/23 05:54:40;;;;;;;34.73;18.17;;;;;;;7.47;36.46;100417.56;1666515;85;21833;-67
2022/01/23 05:57:17;;;;;;;32.00;18.07;;;;;;;7.62;36.25;100419.05;1675208;85;21113;-60
2022/01/23 05:59:45;;;;;;;36.50;20.00;;;;;;;7.65;36.33;100423.89;1674529;85;20968;-60
2022/01/23 06:02:11;;;;;;;31.85;16.85;;;;;;;7.71;36.11;100427.16;1677283;85;21184;-59
2022/01/23 06:04:39;;;;;;;30.45;16.82;;;;;;;7.86;35.87;100420.86;1676609;85;21469;-59
2022/01/23 06:07:16;;;;;;;37.58;17.95;;;;;;;7.75;36.00;100414.19;1676765;85;21110;-59
2022/01/23 06:09:48;;;;;;;33.78;17.30;;;;;;;7.79;35.90;100412.89;1675252;85;20996;-61
2022/01/23 06:12:15;;;;;;;29.10;17.25;;;;;;;7.66;36.29;100420.35;1677166;85;21094;-67
2022/01/23 06:14:41;;;;;;;31.30;16.85;;;;;;;7.73;36.02;100420.84;1676801;85;21612;-59
2022/01/23 06:17:11;;;;;;;33.58;19.02;;;;;;;7.78;36.05;100432.04;1656778;85;21009;-59
2022/01/23 06:20:01;;;;;;;34.55;17.32;;;;;;;7.58;36.42;100438.02;1677164;85;21167;-69
2022/01/23 06:22:47;;;;;;;33.75;18.35;;;;;;;7.72;36.32;100434.77;1677203;85;21466;-70
2022/01/23 06:25:34;;;;;;;36.55;19.17;;;;;;;7.36;36.68;100436.81;1676525;85;21016;-60
2022/01/23 06:28:10;;;;;;;41.88;22.87;;;;;;;7.65;36.56;100435.11;1667908;85;21058;-59
2022/01/23 06:30:38;;;;;;;39.92;22.40;;;;;;;7.63;36.42;100438.34;1676886;85;21631;-65
2022/01/23 06:33:05;;;;;;;44.05;22.02;;;;;;;7.62;36.40;100439.80;1677250;85;21075;-59
2022/01/23 06:35:35;;;;;;;44.88;25.27;;;;;;;7.58;36.45;100434.13;1673772;84;21023;-61
2022/01/23 06:38:04;;;;;;;36.98;18.52;;;;;;;7.63;36.49;100438.34;1683229;83;21102;-59
2022/01/23 06:40:32;;;;;;;33.42;17.35;;;;;;;7.80;36.49;100430.08;1676651;85;21552;-59
2022/01/23 06:43:19;;;;;;;34.88;17.05;;;;;;;8.16;36.16;100431.09;1617526;88;21099;-59
2022/01/23 06:45:59;;;;;;;36.30;18.85;;;;;;;8.11;36.22;100440.67;1625006;86;21150;-59
2022/01/23 06:48:28;;;;;;;34.15;16.80;;;;;;;8.20;36.25;100446.17;1646829;85;20995;-59
2022/01/23 06:50:54;;;;;;;38.08;19.10;;;;;;;8.12;36.23;100443.58;1675656;85;20966;-59
2022/01/23 06:53:21;;;;;;;40.40;20.27;;;;;;;8.57;35.88;100453.16;1677191;85;21058;-59
2022/01/23 06:55:48;;;;;;;37.03;20.20;;;;;;;8.44;36.01;100461.44;1677061;85;20896;-61
2022/01/23 06:58:18;;;;;;;35.58;19.75;;;;;;;8.19;36.12;100466.63;1676940;85;21198;-67
2022/01/23 07:00:46;;;;;;;37.73;18.20;;;;;;;8.25;36.15;100476.84;1676565;85;21018;-59
2022/01/23 07:03:19;;;;;;;33.67;19.75;;;;;;;8.63;35.60;100471.48;1675152;84;21569;-60
2022/01/23 07:06:04;;;;;;;37.38;20.50;;;;;;;8.93;35.31;100473.05;1676864;83;21524;-61
2022/01/23 07:08:47;;;;;;;33.67;18.52;;;;;;;8.93;35.34;100475.16;1645720;84;21099;-64
2022/01/23 07:11:32;;;;;;;33.35;17.30;;;;;;;8.62;35.69;100478.96;1675848;85;21545;-70
2022/01/23 07:14:07;;;;;;;33.08;18.10;;;;;;;8.93;35.55;100471.25;1662086;85;21114;-60
2022/01/23 07:16:41;;;;;;;33.73;18.77;;;;;;;8.95;35.39;100471.11;1673538;85;21105;-59
2022/01/23 07:19:15;;;;;;;34.18;18.82;;;;;;;8.90;35.65;100480.71;1676929;85;20987;-70
2022/01/23 07:21:47;;;;;;;31.33;17.80;;;;;;;9.19;35.17;100478.01;1675609;83;21077;-61
2022/01/23 07:24:17;;;;;;;32.25;17.85;;;;;;;8.93;35.58;100484.26;1678257;83;21114;-61
2022/01/23 07:26:45;;;;;;;31.07;17.27;;;;;;;9.19;35.44;100484.52;1673107;84;21043;-61
2022/01/23 07:29:12;;;;;;;35.17;19.80;;;;;;;9.46;35.03;100488.46;1677041;84;21050;-71
2022/01/23 07:34:09;;;;;;;41.68;21.25;;;;;;;9.75;34.85;100493.03;1639646;86;21061;-62
2022/01/23 07:36:37;;;;;;;35.08;19.55;;;;;;;9.61;35.05;100496.36;1626368;86;21832;-61
2022/01/23 07:39:07;;;;;;;31.70;20.88;;;;;;;9.65;35.16;100502.35;1674891;83;20967;-72
2022/01/23 07:41:41;;;;;;;37.42;20.68;;;;;;;9.56;35.13;100510.38;1680047;83;21096;-61
2022/01/23 07:44:16;;;;;;;30.50;17.80;;;;;;;9.70;35.04;100515.69;1673960;83;21041;-60
2022/01/23 07:46:45;;;;;;;33.78;18.42;;;;;;;9.84;34.89;100518.52;1675612;83;20997;-69
2022/01/23 07:49:32;;;;;;;36.08;19.95;;;;;;;9.92;34.80;100517.98;1675691;83;21497;-62
2022/01/23 07:52:02;;;;;;;;;;;;;;;9.84;34.84;100521.94;1681516;83;21086;-67
2022/01/23 07:54:38;;;;;;;30.02;16.87;;;;;;;10.07;34.75;100519.84;1677077;83;20144;-68
2022/01/23 07:57:21;;;;;;;28.23;16.35;;;;;;;10.18;34.66;100522.05;1677356;83;21040;-60
2022/01/23 08:00:07;;;;;;;27.70;15.68;;;;;;;10.16;34.62;100527.94;1625282;86;21165;-72
2022/01/23 08:02:42;;;;;;;28.70;16.37;;;;;;;10.52;34.13;100540.39;1651698;85;21841;-60
2022/01/23 08:05:23;;;;;;;23.83;14.95;;;;;;;10.60;34.09;100545.04;1622168;88;21078;-60
2022/01/23 08:07:53;;;;;;;26.73;15.32;;;;;;;10.47;34.31;100550.85;1682310;84;21010;-64
2022/01/23 08:10:30;;;;;;;25.40;14.30;;;;;;;10.38;34.48;100558.89;1685937;84;21015;-62
2022/01/23 08:12:58;;;;;;;28.00;15.95;;;;;;;10.64;34.02;100563.25;1689529;83;21082;-59
2022/01/23 08:15:26;;;;;;;25.35;14.10;;;;;;;10.53;34.12;100555.87;1694372;83;21251;-70
2022/01/23 08:17:54;;;;;;;24.92;14.85;;;;;;;10.46;33.91;100555.76;1691680;83;21025;-61
2022/01/23 08:20:21;;;;;;;35.85;15.98;;;;;;;10.52;33.91;100556.03;1689103;83;20979;-61
2022/01/23 08:22:47;;;;;;;25.37;15.13;;;;;;;10.23;34.42;100561.44;1692162;83;20970;-60
2022/01/23 08:25:17;;;;;;;23.32;13.93;;;;;;;10.63;34.35;100563.44;1690039;83;21161;-61
2022/01/23 08:27:44;;;;;;;25.77;13.35;;;;;;;11.02;33.51;100548.08;1690784;83;21176;-61
2022/01/23 08:30:13;;;;;;;26.50;13.62;;;;;;;11.03;33.64;100549.72;1690733;83;21185;-60
2022/01/23 08:32:39;;;;;;;24.80;14.50;;;;;;;11.16;33.33;100540.77;1667227;84;21087;-61
2022/01/23 08:35:09;;;;;;;24.90;14.38;;;;;;;10.31;34.57;100539.76;1660504;85;21470;-60
2022/01/23 08:37:35;;;;;;;23.90;13.75;;;;;;;11.11;33.68;100524.36;1688199;83;21495;-68
2022/01/23 08:40:04;;;;;;;26.17;14.87;;;;;;;11.27;33.02;100516.03;1691367;83;22436;-60
2022/01/23 08:42:32;;;;;;;27.15;15.03;;;;;;;11.00;33.52;100516.97;1687522;83;21457;-61
2022/01/23 08:45:00;;;;;;;26.50;15.15;;;;;;;11.30;33.12;100511.26;1691632;83;20990;-64
2022/01/23 08:47:30;;;;;;;27.15;15.40;;;;;;;11.34;33.29;100512.52;1688636;83;21115;-74
2022/01/23 08:49:58;;;;;;;24.72;14.93;;;;;;;11.72;32.82;100515.47;1689880;83;21097;-61
2022/01/23 08:52:29;;;;;;;23.87;13.90;;;;;;;11.76;32.87;100518.02;1690438;83;21167;-60
2022/01/23 08:54:56;;;;;;;23.67;14.85;;;;;;;10.18;34.24;100519.45;1688271;83;25664;-61
2022/01/23 08:57:26;;;;;;;24.92;13.75;;;;;;;9.99;35.07;100516.80;1692427;83;21514;-74
2022/01/23 08:59:53;;;;;;;24.05;13.95;;;;;;;9.84;35.16;100511.52;1690058;83;21036;-63
2022/01/23 09:02:19;;;;;;;29.60;14.65;;;;;;;10.06;35.03;100516.44;1682500;83;21596;-67
2022/01/23 09:04:46;;;;;;;22.90;13.65;;;;;;;10.08;35.15;100520.99;1640136;85;21547;-60
2022/01/23 09:07:15;;;;;;;23.32;13.90;;;;;;;10.15;35.61;100519.78;1647074;85;21011;-63
2022/01/23 09:09:42;;;;;;;26.20;14.35;;;;;;;10.34;35.67;100514.16;1641962;85;21035;-68
2022/01/23 09:14:51;;;;;;;21.85;13.25;;;;;;;10.57;35.59;100506.78;1644722;85;21107;-61
2022/01/23 09:17:17;;;;;;;21.85;12.35;;;;;;;11.04;35.16;100501.77;1639726;85;22341;-72
2022/01/23 09:19:47;;;;;;;22.00;13.18;;;;;;;11.24;34.92;100505.45;1645312;85;21081;-61
2022/01/23 09:22:16;;;;;;;23.67;13.48;;;;;;;11.54;34.43;100491.06;1640629;85;21073;-60
2022/01/23 09:24:43;;;;;;;22.30;12.82;;;;;;;11.65;34.11;100482.75;1640992;85;21011;-62
2022/01/23 09:27:21;;;;;;;21.50;13.20;;;;;;;11.88;33.97;100489.95;1643232;85;21093;-73
2022/01/23 09:29:53;;;;;;;25.25;13.10;;;;;;;11.64;33.72;100496.80;1639195;85;21098;-61
2022/01/23 09:32:23;;;;;;;20.10;11.12;;;;;;;11.84;33.85;100496.54;1637630;85;20916;-65
2022/01/23 09:34:52;;;;;;;21.07;13.88;;;;;;;12.05;33.29;100500.18;1646571;85;21091;-73
2022/01/23 09:37:18;;;;;;;18.07;11.10;;;;;;;12.06;33.44;100499.98;1638494;85;20964;-63
2022/01/23 09:39:52;;;;;;;19.23;11.80;;;;;;;11.88;33.77;100499.09;1638117;85;21396;-63
2022/01/23 09:42:30;;;;;;;20.48;10.98;;;;;;;11.66;33.83;100503.94;1647309;85;21903;-61
2022/01/23 09:44:59;;;;;;;18.77;10.50;;;;;;;12.07;33.19;100493.75;1640371;85;20960;-66
2022/01/23 09:47:26;;;;;;;15.58;9.35;;;;;;;12.04;33.36;100490.70;1647812;85;20986;-62
2022/01/23 09:49:53;;;;;;;18.75;10.03;;;;;;;12.18;33.08;100484.61;1642637;85;21022;-69
2022/01/23 09:52:22;;;;;;;15.50;10.60;;;;;;;11.97;33.47;100479.38;1646338;85;21014;-60
2022/01/23 09:54:59;;;;;;;20.48;11.48;;;;;;;11.98;33.60;100483.12;1645060;85;21160;-74
2022/01/23 09:57:30;;;;;;;19.98;11.63;;;;;;;11.91;33.44;100483.05;1648014;85;21130;-63
2022/01/23 09:59:56;;;;;;;20.82;12.15;;;;;;;12.08;33.44;100481.49;1645450;85;21086;-61
2022/01/23 10:02:25;;;;;;;18.05;11.20;;;;;;;12.15;33.23;100483.67;1644477;85;21110;-64
2022/01/23 10:04:52;;;;;;;21.55;12.70;;;;;;;12.19;33.37;100475.77;1642487;85;21030;-77
2022/01/23 10:07:20;;;;;;;19.12;11.93;;;;;;;12.31;32.87;100470.36;1651302;85;21460;-59
2022/01/23 10:09:58;;;;;;;15.60;10.43;;;;;;;12.38;32.75;100475.62;1646048;85;21050;-60
2022/01/23 10:12:26;;;;;;;16.97;9.78;;;;;;;12.21;32.72;100479.02;1642244;85;21572;-60
2022/01/23 10:14:50;;;;;;;16.00;9.83;;;;;;;12.74;32.05;100472.88;1638444;85;21108;-60
2022/01/23 10:17:18;;;;;;;16.42;9.75;;;;;;;12.78;32.05;100474.10;1646296;85;21117;-62
2022/01/23 10:19:45;;;;;;;14.93;8.25;;;;;;;12.45;32.59;100464.72;1647199;85;21173;-64
2022/01/23 10:22:14;;;;;;;14.78;8.63;;;;;;;12.24;32.72;100468.19;1642199;85;20979;-61
2022/01/23 10:24:41;;;;;;;14.98;8.05;;;;;;;12.48;32.75;100462.23;1610884;87;20986;-76
2022/01/23 10:27:08;;;;;;;14.25;7.83;;;;;;;12.24;32.78;100455.13;1648749;85;20967;-60
2022/01/23 10:29:37;;;;;;;13.15;6.87;;;;;;;12.48;32.50;100457.00;1646363;85;21133;-61
2022/01/23 10:32:21;;;;;;;17.40;7.37;;;;;;;12.57;32.10;100449.31;1646049;85;21215;-65
2022/01/23 10:34:55;;;;;;;10.93;7.05;;;;;;;12.44;32.03;100451.84;1646183;85;21077;-76
2022/01/23 10:37:37;;;;;;;14.07;7.37;;;;;;;11.60;33.19;100448.06;1639194;85;22255;-62
2022/01/23 10:40:26;;;;;;;13.13;7.53;;;;;;;11.78;33.24;100446.34;1640808;85;22036;-63
2022/01/23 10:48:48;;;;;;;12.88;7.45;;;;;;;11.78;33.39;100445.03;1648524;85;21973;-62
2022/01/23 10:51:31;;;;;;;14.00;7.50;;;;;;;11.98;33.04;100432.69;1640192;85;21022;-63
2022/01/23 10:54:11;;;;;;;13.83;8.23;;;;;;;11.99;33.19;100430.37;1643441;85;22311;-62
2022/01/23 10:56:59;;;;;;;12.55;8.25;;;;;;;11.95;33.11;100432.55;1646854;85;21078;-61
2022/01/23 10:59:41;;;;;;;13.05;7.78;;;;;;;11.78;33.09;100436.37;1640973;85;22075;-64
2022/01/23 11:02:10;;;;;;;14.58;8.18;;;;;;;11.59;33.37;100446.45;1643787;85;21517;-64
2022/01/23 11:04:57;;;;;;;12.98;8.08;;;;;;;11.73;33.47;100438.23;1654179;83;21182;-63
2022/01/23 11:07:25;;;;;;;18.57;9.18;;;;;;;11.92;32.96;100449.90;1642677;85;21147;-60
2022/01/23 11:09:57;;;;;;;13.20;7.87;;;;;;;11.92;32.97;100461.16;1645867;85;21085;-62
2022/01/23 11:17:53;;;;;;;13.22;7.28;;;;;;;12.28;32.91;100477.27;1642159;85;21058;-73
2022/01/23 11:20:33;;;;;;;13.62;8.40;;;;;;;12.21;32.69;100482.94;1642096;85;22129;-63
2022/01/23 11:23:19;;;;;;;14.87;8.55;;;;;;;12.47;32.50;100482.84;1617776;85;21054;-68
2022/01/23 11:25:58;;;;;;;12.25;7.55;;;;;;;12.44;32.43;100491.87;1639348;85;22768;-60
2022/01/23 11:28:40;;;;;;;16.15;8.13;;;;;;;12.25;32.63;100503.77;1643711;85;21603;-60
2022/01/23 11:31:17;;;;;;;14.90;9.03;;;;;;;12.24;32.87;100504.78;1640873;85;21551;-78
2022/01/23 11:33:47;;;;;;;14.03;8.33;;;;;;;12.67;32.10;100496.86;1645622;85;22012;-61
2022/01/23 11:36:14;;;;;;;12.65;8.20;;;;;;;12.66;32.23;100488.72;1646126;85;21078;-62
2022/01/23 11:38:44;;;;;;;14.10;7.95;;;;;;;12.64;32.33;100498.55;1641172;85;22210;-76
2022/01/23 11:55:35;;;;;;;10.38;7.12;;;;;;;12.58;32.63;100550.31;1645666;85;21041;-60
2022/01/23 11:58:04;;;;;;;12.05;7.50;;;;;;;12.22;32.75;100557.72;1641226;85;21123;-64
2022/01/23 12:00:33;;;;;;;11.50;7.42;;;;;;;12.24;32.82;100560.17;1645170;85;21535;-62
2022/01/23 12:03:18;;;;;;;14.40;8.03;;;;;;;12.47;32.50;100559.47;1639665;85;20864;-61
2022/01/23 12:05:50;;;;;;;15.70;9.13;;;;;;;12.58;32.50;100551.63;1654513;84;21172;-62
2022/01/23 12:08:31;;;;;;;12.18;7.53;;;;;;;12.75;32.39;100555.56;1655789;84;20946;-60
2022/01/23 12:11:40;;;;;;;15.23;8.20;;;;;;;12.60;32.41;100547.80;1650368;84;21144;-68
2022/01/23 12:16:59;;;;;;;9.40;6.87;;;;;;;12.72;32.25;100555.94;1660360;84;20931;-64
2022/01/23 12:19:28;;;;;;;12.88;6.95;;;;;;;12.85;32.05;100563.91;1655655;84;21139;-62
2022/01/23 12:21:56;;;;;;;11.70;6.92;;;;;;;12.79;32.14;100569.88;1660514;84;21300;-65
2022/01/23 12:24:24;;;;;;;11.85;7.20;;;;;;;12.85;32.06;100565.22;1640353;87;21603;-61
2022/01/23 12:26:52;;;;;;;12.50;8.10;;;;;;;12.98;31.95;100560.56;1663003;84;21509;-61
2022/01/23 12:29:27;;;;;;;12.20;7.78;;;;;;;13.31;31.58;100562.11;1641373;85;21466;-65
2022/01/23 12:32:30;;;;;;;13.55;7.85;;;;;;;13.11;31.57;100561.97;1660002;84;21029;-68
2022/01/23 12:35:00;;;;;;;12.93;7.15;;;;;;;12.99;31.47;100553.52;1662330;84;21155;-71
2022/01/23 12:37:27;;;;;;;13.43;6.70;;;;;;;12.86;31.72;100558.17;1660995;84;21044;-66
2022/01/23 12:40:25;;;;;;;10.88;6.67;;;;;;;7.07;36.82;100583.15;1656651;84;21085;-68
2022/01/23 12:43:13;;;;;;;11.40;6.72;;;;;;;4.17;44.79;100586.92;1653282;85;21083;-60
2022/01/23 12:45:52;;;;;;;10.05;6.20;;;;;;;4.99;45.26;100582.66;1665056;84;21834;-61
2022/01/23 12:48:38;;;;;;;10.63;6.67;;;;;;;4.23;45.23;100575.59;1649496;85;21461;-67
2022/01/23 12:51:18;;;;;;;11.48;6.65;;;;;;;6.84;42.69;100578.12;1624834;86;21128;-62
2022/01/23 12:53:50;;;;;;;13.45;7.10;;;;;;;4.34;45.36;100581.12;1607635;88;21096;-71
2022/01/23 12:56:22;;;;;;;10.93;6.33;;;;;;;3.95;46.73;100572.52;1608674;88;22314;-69
2022/01/23 12:59:08;;;;;;;12.45;7.03;;;;;;;4.13;46.02;100576.89;1613502;87;21199;-60
2022/01/23 13:01:34;;;;;;;10.15;6.22;;;;;;;3.72;48.01;100583.51;1653568;84;21564;-62
2022/01/23 13:04:04;;;;;;;9.13;6.62;;;;;;;3.90;48.17;100576.75;1668359;83;21170;-62
2022/01/23 13:06:38;;;;;;;13.43;7.30;;;;;;;3.79;48.42;100581.56;1670909;83;21094;-62
2022/01/23 13:12:12;;;;;;;12.00;7.55;;;;;;;8.11;40.99;100574.88;1679594;83;21162;-61
2022/01/23 13:14:59;;;;;;;9.68;6.17;;;;;;;6.41;40.23;100581.02;1677865;83;21547;-59
2022/01/23 13:17:56;;;;;;;12.60;6.80;;;;;;;4.02;46.69;100598.94;1675916;83;21042;-65
2022/01/23 13:31:48;;;;;;;10.98;5.80;;;;;;;7.75;41.01;100610.11;1679617;83;21033;-61
2022/01/23 13:34:48;;;;;;;11.10;6.75;;;;;;;8.17;40.17;100610.08;1681538;83;21100;-65
2022/01/23 13:37:19;;;;;;;12.10;6.67;;;;;;;8.34;39.88;100610.95;1664992;83;21075;-62
2022/01/23 13:39:56;;;;;;;12.25;7.28;;;;;;;8.62;39.14;100608.89;1679571;83;21949;-63
2022/01/23 13:59:53;;;;;;;11.73;6.58;;;;;;;9.18;37.67;100629.36;1677068;85;21074;-63
2022/01/23 14:02:34;;;;;;;15.32;7.00;;;;;;;9.15;37.66;100626.27;1676187;83;21451;-62
2022/01/23 14:05:17;;;;;;;10.40;5.95;;;;;;;9.31;37.39;100622.33;1674296;84;20987;-64
2022/01/23 14:07:52;;;;;;;12.98;7.17;;;;;;;9.45;37.06;100617.76;1677565;83;39192;-73
2022/01/23 14:10:38;;;;;;;11.70;7.33;;;;;;;9.55;36.88;100617.58;1680316;84;21049;-74
2022/01/23 14:13:19;;;;;;;14.55;7.58;;;;;;;3.40;46.12;100648.86;1667476;83;20936;-61
2022/01/23 14:15:49;;;;;;;10.85;6.72;;;;;;;2.67;49.32;100643.60;1676178;85;21183;-60
2022/01/23 14:18:24;;;;;;;10.65;6.83;;;;;;;4.69;47.76;100633.98;1676733;85;20935;-60
2022/01/23 14:21:06;;;;;;;11.35;6.35;;;;;;;2.11;51.86;100648.06;1676825;84;22312;-62
2022/01/23 14:23:34;;;;;;;12.45;6.45;;;;;;;3.08;53.11;100665.69;1676680;84;21179;-66
2022/01/23 14:26:09;;;;;;;10.05;6.40;;;;;;;1.97;54.51;100673.56;1676603;83;21011;-64
2022/01/23 14:28:47;;;;;;;11.68;6.90;;;;;;;4.37;50.54;100667.31;1677095;84;21564;-63
2022/01/23 14:31:20;;;;;;;13.93;7.03;;;;;;;2.14;54.58;100665.83;1677357;83;21047;-63
2022/01/23 14:33:44;;;;;;;18.50;7.90;;;;;;;2.09;56.32;100667.95;1680970;83;21172;-67
2022/01/23 14:36:16;;;;;;;15.75;7.67;;;;;;;4.09;50.72;100672.72;1679922;83;21562;-61
2022/01/23 14:38:56;;;;;;;13.70;7.22;;;;;;;2.41;53.95;100678.30;1622983;86;21094;-64
2022/01/23 14:41:30;;;;;;;16.40;8.63;;;;;;;2.31;56.44;100690.23;1643343;85;21115;-77
2022/01/23 14:43:57;;;;;;;12.30;7.03;;;;;;;5.03;49.90;100676.53;1647533;85;21150;-65
2022/01/23 14:46:23;;;;;;;12.18;6.97;;;;;;;5.37;48.24;100686.44;1606727;88;23145;-83
2022/01/23 14:48:57;;;;;;;13.05;7.80;;;;;;;6.08;45.88;100689.39;1679646;83;21148;-66
2022/01/23 14:51:24;;;;;;;12.95;7.12;;;;;;;6.53;44.53;100666.59;1679607;83;21528;-74
2022/01/23 14:53:51;;;;;;;11.93;7.03;;;;;;;6.93;43.65;100667.95;1681267;83;21108;-64
2022/01/23 14:56:19;;;;;;;13.00;7.33;;;;;;;7.12;43.09;100671.31;1679751;83;21024;-63
2022/01/23 14:58:47;;;;;;;12.70;7.35;;;;;;;7.16;42.73;100675.23;1676140;83;21147;-64
2022/01/23 15:01:15;;;;;;;15.65;8.68;;;;;;;7.30;42.36;100672.91;1680226;83;21035;-77